createdAt,value
2017-05-10T00:00:40.633Z,1009.18
2017-05-10T00:01:50.592Z,1009.17
2017-05-10T00:03:00.856Z,1009.19
2017-05-10T00:04:10.806Z,1009.19
2017-05-10T00:05:20.446Z,1009.16
2017-05-10T00:06:30.393Z,1009.17
2017-05-10T00:07:40.337Z,1009.16
2017-05-10T00:08:50.611Z,1009.12
2017-05-10T00:10:00.874Z,1009.1
2017-05-10T00:11:11.133Z,1009.08
2017-05-10T00:12:21.401Z,1009.12
2017-05-10T00:13:31.346Z,1009.09
2017-05-10T00:14:41.610Z,1009.14
2017-05-10T00:15:51.250Z,1009.12
2017-05-10T00:17:01.202Z,1009.09
2017-05-10T00:18:11.153Z,1009.13
2017-05-10T00:19:20.788Z,1009.08
2017-05-10T00:20:31.061Z,1009.05
2017-05-10T00:21:41.011Z,1009.02
2017-05-10T00:22:50.640Z,1008.99
2017-05-10T00:24:00.950Z,1009
2017-05-10T00:25:10.903Z,1008.95
2017-05-10T00:26:21.169Z,1008.92
2017-05-10T00:27:31.428Z,1008.97
2017-05-10T00:28:41.416Z,1008.92
2017-05-10T00:29:51.682Z,1008.88
2017-05-10T00:31:01.947Z,1008.85
2017-05-10T00:32:11.586Z,1008.88
2017-05-10T00:33:21.851Z,1008.86
2017-05-10T00:34:31.484Z,1008.84
2017-05-10T00:35:41.162Z,1008.83
2017-05-10T00:36:51.431Z,1008.83
2017-05-10T00:38:01.381Z,1008.83
2017-05-10T00:39:11.333Z,1008.82
2017-05-10T00:40:21.312Z,1008.81
2017-05-10T00:41:31.586Z,1008.78
2017-05-10T00:42:41.540Z,1008.78
2017-05-10T00:43:51.808Z,1008.78
2017-05-10T00:45:01.757Z,1008.77
2017-05-10T00:46:11.703Z,1008.75
2017-05-10T00:47:21.660Z,1008.73
2017-05-10T00:48:31.923Z,1008.69
2017-05-10T00:49:42.192Z,1008.65
2017-05-10T00:50:52.150Z,1008.65
2017-05-10T00:52:02.415Z,1008.65
2017-05-10T00:53:12.676Z,1008.6
2017-05-10T00:54:22.951Z,1008.62
2017-05-10T00:55:33.223Z,1008.62
2017-05-10T00:56:42.867Z,1008.56
2017-05-10T00:57:52.814Z,1008.56
2017-05-10T00:59:02.459Z,1008.56
2017-05-10T01:00:12.733Z,1008.58
2017-05-10T01:01:22.684Z,1008.6
2017-05-10T01:02:32.952Z,1008.6
2017-05-10T01:03:43.223Z,1008.57
2017-05-10T01:04:53.485Z,1008.56
2017-05-10T01:06:03.432Z,1008.55
2017-05-10T01:07:12.749Z,1008.54
2017-05-10T01:08:22.386Z,1008.49
2017-05-10T01:09:32.353Z,1008.5
2017-05-10T01:10:42.310Z,1008.49
2017-05-10T01:11:52.595Z,1008.48
2017-05-10T01:13:02.857Z,1008.49
2017-05-10T01:14:13.127Z,1008.48
2017-05-10T01:15:23.075Z,1008.51
2017-05-10T01:16:33.034Z,1008.49
2017-05-10T01:17:43.305Z,1008.47
2017-05-10T01:18:53.574Z,1008.41
2017-05-10T01:20:03.529Z,1008.38
2017-05-10T01:21:13.170Z,1008.34
2017-05-10T01:22:23.127Z,1008.31
2017-05-10T01:23:33.087Z,1008.33
2017-05-10T01:24:43.039Z,1008.27
2017-05-10T01:25:53.032Z,1008.3
2017-05-10T01:27:03.298Z,1008.25
2017-05-10T01:28:13.561Z,1008.25
2017-05-10T01:29:23.514Z,1008.22
2017-05-10T01:30:33.787Z,1008.23
2017-05-10T01:31:43.743Z,1008.17
2017-05-10T01:32:53.695Z,1008.16
2017-05-10T01:34:03.651Z,1008.14
2017-05-10T01:35:13.603Z,1008.17
2017-05-10T01:36:23.556Z,1008.14
2017-05-10T01:37:33.203Z,1008.16
2017-05-10T01:38:43.158Z,1008.13
2017-05-10T01:39:53.426Z,1008.18
2017-05-10T01:41:03.062Z,1008.15
2017-05-10T01:42:13.010Z,1008.12
2017-05-10T01:43:22.677Z,1008.11
2017-05-10T01:44:32.650Z,1008.13
2017-05-10T01:45:42.597Z,1008.12
2017-05-10T01:46:52.863Z,1008.12
2017-05-10T01:48:03.125Z,1008.11
2017-05-10T01:49:12.444Z,1008.13
2017-05-10T01:50:22.714Z,1008.11
2017-05-10T01:51:32.665Z,1008.1
2017-05-10T01:52:42.929Z,1008.06
2017-05-10T01:53:52.888Z,1008.07
2017-05-10T01:55:02.846Z,1008.08
2017-05-10T01:56:13.111Z,1008.08
2017-05-10T01:57:22.745Z,1008.07
2017-05-10T01:58:33.015Z,1008.01
2017-05-10T01:59:43.289Z,1008.04
2017-05-10T02:00:53.550Z,1008
2017-05-10T02:02:03.815Z,1007.94
2017-05-10T02:03:14.077Z,1007.97
2017-05-10T02:04:24.350Z,1007.95
2017-05-10T02:05:34.298Z,1007.96
2017-05-10T02:06:44.252Z,1007.96
2017-05-10T02:07:54.514Z,1007.94
2017-05-10T02:09:04.473Z,1007.93
2017-05-10T02:10:14.742Z,1007.9
2017-05-10T02:11:24.389Z,1007.92
2017-05-10T02:12:34.342Z,1007.97
2017-05-10T02:13:43.982Z,1007.94
2017-05-10T02:14:53.312Z,1007.91
2017-05-10T02:16:02.956Z,1007.95
2017-05-10T02:17:12.904Z,1007.95
2017-05-10T02:18:22.858Z,1007.96
2017-05-10T02:19:32.819Z,1007.98
2017-05-10T02:20:43.085Z,1007.96
2017-05-10T02:21:53.357Z,1007.97
2017-05-10T02:23:03.308Z,1007.93
2017-05-10T02:24:13.573Z,1007.9
2017-05-10T02:25:23.526Z,1007.92
2017-05-10T02:26:33.794Z,1007.95
2017-05-10T02:27:43.761Z,1007.97
2017-05-10T02:28:54.034Z,1007.92
2017-05-10T02:30:04.307Z,1007.92
2017-05-10T02:31:14.581Z,1007.94
2017-05-10T02:32:24.529Z,1007.9
2017-05-10T02:33:34.792Z,1007.9
2017-05-10T02:34:44.428Z,1007.86
2017-05-10T02:35:54.388Z,1007.87
2017-05-10T02:37:04.017Z,1007.86
2017-05-10T02:38:14.312Z,1007.86
2017-05-10T02:39:23.955Z,1007.82
2017-05-10T02:40:33.903Z,1007.81
2017-05-10T02:41:43.853Z,1007.83
2017-05-10T02:42:54.114Z,1007.83
2017-05-10T02:44:04.387Z,1007.89
2017-05-10T02:45:14.024Z,1007.87
2017-05-10T02:46:23.346Z,1007.83
2017-05-10T02:47:33.621Z,1007.85
2017-05-10T02:48:43.887Z,1007.85
2017-05-10T02:49:54.157Z,1007.83
2017-05-10T02:51:04.127Z,1007.81
2017-05-10T02:52:14.390Z,1007.8
2017-05-10T02:53:24.660Z,1007.78
2017-05-10T02:54:34.931Z,1007.77
2017-05-10T02:55:44.888Z,1007.71
2017-05-10T02:56:54.862Z,1007.71
2017-05-10T02:58:05.131Z,1007.68
2017-05-10T02:59:15.073Z,1007.66
2017-05-10T03:00:25.345Z,1007.7
2017-05-10T03:01:35.611Z,1007.66
2017-05-10T03:02:45.570Z,1007.62
2017-05-10T03:03:55.842Z,1007.64
2017-05-10T03:05:05.789Z,1007.66
2017-05-10T03:06:16.053Z,1007.64
2017-05-10T03:07:25.691Z,1007.61
2017-05-10T03:08:35.958Z,1007.64
2017-05-10T03:09:46.231Z,1007.6
2017-05-10T03:10:56.498Z,1007.62
2017-05-10T03:12:06.137Z,1007.58
2017-05-10T03:13:16.407Z,1007.55
2017-05-10T03:14:26.676Z,1007.54
2017-05-10T03:15:36.633Z,1007.52
2017-05-10T03:16:46.586Z,1007.49
2017-05-10T03:17:56.851Z,1007.48
2017-05-10T03:19:07.119Z,1007.5
2017-05-10T03:20:17.387Z,1007.5
2017-05-10T03:21:27.338Z,1007.49
2017-05-10T03:22:37.603Z,1007.47
2017-05-10T03:23:47.562Z,1007.47
2017-05-10T03:24:57.828Z,1007.45
2017-05-10T03:26:07.781Z,1007.41
2017-05-10T03:27:18.047Z,1007.39
2017-05-10T03:28:28.003Z,1007.38
2017-05-10T03:29:37.958Z,1007.39
2017-05-10T03:30:47.593Z,1007.39
2017-05-10T03:31:57.852Z,1007.38
2017-05-10T03:33:07.807Z,1007.41
2017-05-10T03:34:17.759Z,1007.34
2017-05-10T03:35:27.715Z,1007.34
2017-05-10T03:36:37.997Z,1007.35
2017-05-10T03:37:47.952Z,1007.29
2017-05-10T03:38:58.223Z,1007.3
2017-05-10T03:40:08.505Z,1007.34
2017-05-10T03:41:18.770Z,1007.28
2017-05-10T03:42:29.030Z,1007.28
2017-05-10T03:43:38.982Z,1007.26
2017-05-10T03:44:49.266Z,1007.28
2017-05-10T03:45:59.532Z,1007.32
2017-05-10T03:47:09.807Z,1007.3
2017-05-10T03:48:19.758Z,1007.29
2017-05-10T03:49:29.716Z,1007.34
2017-05-10T03:50:39.671Z,1007.27
2017-05-10T03:51:49.620Z,1007.29
2017-05-10T03:52:59.573Z,1007.28
2017-05-10T03:54:09.900Z,1007.28
2017-05-10T03:55:19.856Z,1007.25
2017-05-10T03:56:29.495Z,1007.31
2017-05-10T03:57:39.129Z,1007.28
2017-05-10T03:58:49.394Z,1007.28
2017-05-10T03:59:59.661Z,1007.34
2017-05-10T04:01:09.923Z,1007.35
2017-05-10T04:02:20.193Z,1007.36
2017-05-10T04:03:30.460Z,1007.35
2017-05-10T04:04:40.735Z,1007.36
2017-05-10T04:05:51.008Z,1007.38
2017-05-10T04:07:01.279Z,1007.34
2017-05-10T04:08:11.546Z,1007.35
2017-05-10T04:09:21.818Z,1007.31
2017-05-10T04:10:32.087Z,1007.33
2017-05-10T04:11:42.354Z,1007.34
2017-05-10T04:12:52.318Z,1007.34
2017-05-10T04:14:02.271Z,1007.32
2017-05-10T04:15:11.908Z,1007.36
2017-05-10T04:16:21.853Z,1007.35
2017-05-10T04:17:31.806Z,1007.33
2017-05-10T04:18:41.758Z,1007.3
2017-05-10T04:19:52.031Z,1007.29
2017-05-10T04:21:01.991Z,1007.31
2017-05-10T04:22:12.298Z,1007.32
2017-05-10T04:23:22.563Z,1007.29
2017-05-10T04:24:32.838Z,1007.33
2017-05-10T04:25:42.794Z,1007.33
2017-05-10T04:26:53.057Z,1007.33
2017-05-10T04:28:03.014Z,1007.25
2017-05-10T04:29:12.969Z,1007.23
2017-05-10T04:30:23.239Z,1007.27
2017-05-10T04:31:33.192Z,1007.25
2017-05-10T04:32:42.844Z,1007.22
2017-05-10T04:33:52.813Z,1007.2
2017-05-10T04:35:02.456Z,1007.19
2017-05-10T04:36:12.398Z,1007.17
2017-05-10T04:37:22.354Z,1007.19
2017-05-10T04:38:32.634Z,1007.18
2017-05-10T04:39:42.294Z,1007.16
2017-05-10T04:40:52.568Z,1007.19
2017-05-10T04:42:02.837Z,1007.16
2017-05-10T04:43:12.159Z,1007.14
2017-05-10T04:44:22.118Z,1007.18
2017-05-10T04:45:31.759Z,1007.18
2017-05-10T04:46:41.709Z,1007.16
2017-05-10T04:47:51.657Z,1007.17
2017-05-10T04:49:01.618Z,1007.15
2017-05-10T04:50:11.572Z,1007.15
2017-05-10T04:51:21.840Z,1007.15
2017-05-10T04:52:32.106Z,1007.17
2017-05-10T04:53:41.432Z,1007.18
2017-05-10T04:54:51.706Z,1007.15
2017-05-10T04:56:01.658Z,1007.17
2017-05-10T04:57:11.615Z,1007.21
2017-05-10T04:58:21.879Z,1007.24
2017-05-10T04:59:31.827Z,1007.26
2017-05-10T05:00:41.782Z,1007.26
2017-05-10T05:01:52.048Z,1007.21
2017-05-10T05:03:02.323Z,1007.22
2017-05-10T05:04:12.595Z,1007.14
2017-05-10T05:05:22.551Z,1007.18
2017-05-10T05:06:31.868Z,1007.2
2017-05-10T05:07:42.138Z,1007.19
2017-05-10T05:08:52.407Z,1007.17
2017-05-10T05:10:02.368Z,1007.15
2017-05-10T05:11:12.315Z,1007.16
2017-05-10T05:12:22.263Z,1007.17
2017-05-10T05:13:32.221Z,1007.18
2017-05-10T05:14:42.177Z,1007.11
2017-05-10T05:15:52.444Z,1007.1
2017-05-10T05:17:02.083Z,1007.08
2017-05-10T05:18:12.355Z,1007.08
2017-05-10T05:19:22.625Z,1007.08
2017-05-10T05:20:32.894Z,1007.09
2017-05-10T05:21:43.152Z,1007.09
2017-05-10T05:22:52.787Z,1007.11
2017-05-10T05:24:03.065Z,1007.09
2017-05-10T05:25:13.324Z,1007.08
2017-05-10T05:26:23.583Z,1007.09
2017-05-10T05:27:33.532Z,1007.07
2017-05-10T05:28:43.168Z,1007.07
2017-05-10T05:29:53.433Z,1007.06
2017-05-10T05:31:03.375Z,1007.05
2017-05-10T05:32:13.641Z,1007.04
2017-05-10T05:33:23.597Z,1007.04
2017-05-10T05:34:33.557Z,1007.03
2017-05-10T05:35:43.816Z,1007.02
2017-05-10T05:36:53.454Z,1007.02
2017-05-10T05:38:03.417Z,1007
2017-05-10T05:39:13.369Z,1006.98
2017-05-10T05:40:23.316Z,1006.97
2017-05-10T05:41:33.576Z,1006.96
2017-05-10T05:42:43.842Z,1006.97
2017-05-10T05:43:54.114Z,1006.96
2017-05-10T05:45:04.096Z,1006.94
2017-05-10T05:46:14.362Z,1006.95
2017-05-10T05:47:24.314Z,1006.94
2017-05-10T05:48:34.581Z,1006.93
2017-05-10T05:49:44.219Z,1006.95
2017-05-10T05:50:54.180Z,1006.93
2017-05-10T05:52:04.130Z,1006.92
2017-05-10T05:53:14.079Z,1006.93
2017-05-10T05:54:24.357Z,1006.95
2017-05-10T05:55:34.308Z,1006.94
2017-05-10T05:56:44.255Z,1006.95
2017-05-10T05:57:54.211Z,1006.93
2017-05-10T05:59:04.475Z,1006.98
2017-05-10T06:00:14.744Z,1006.96
2017-05-10T06:01:25.008Z,1006.92
2017-05-10T06:02:35.269Z,1006.95
2017-05-10T06:03:44.907Z,1006.9
2017-05-10T06:04:54.854Z,1006.98
2017-05-10T06:06:04.807Z,1006.97
2017-05-10T06:07:14.759Z,1006.95
2017-05-10T06:08:25.027Z,1006.95
2017-05-10T06:09:34.986Z,1006.94
2017-05-10T06:10:44.940Z,1006.93
2017-05-10T06:11:55.206Z,1006.93
2017-05-10T06:13:05.483Z,1006.93
2017-05-10T06:14:15.431Z,1006.89
2017-05-10T06:15:25.381Z,1006.89
2017-05-10T06:16:35.327Z,1006.92
2017-05-10T06:17:45.587Z,1006.9
2017-05-10T06:18:55.852Z,1006.9
2017-05-10T06:20:06.123Z,1006.92
2017-05-10T06:21:15.124Z,1006.9
2017-05-10T06:22:25.433Z,1006.88
2017-05-10T06:23:35.391Z,1006.91
2017-05-10T06:24:45.071Z,1006.9
2017-05-10T06:25:55.330Z,1006.93
2017-05-10T06:27:04.963Z,1006.94
2017-05-10T06:28:14.916Z,1006.95
2017-05-10T06:29:25.179Z,1006.93
2017-05-10T06:30:35.482Z,1006.94
2017-05-10T06:31:45.448Z,1006.94
2017-05-10T06:32:54.774Z,1006.96
2017-05-10T06:34:05.032Z,1006.96
2017-05-10T06:35:14.988Z,1007
2017-05-10T06:36:24.941Z,1006.97
2017-05-10T06:37:35.209Z,1006.93
2017-05-10T06:38:44.837Z,1006.9
2017-05-10T06:39:55.112Z,1006.96
2017-05-10T06:41:05.391Z,1006.95
2017-05-10T06:42:15.347Z,1006.91
2017-05-10T06:43:24.983Z,1006.96
2017-05-10T06:44:35.254Z,1006.95
2017-05-10T06:45:45.207Z,1006.95
2017-05-10T06:46:54.861Z,1006.91
2017-05-10T06:48:05.127Z,1006.91
2017-05-10T06:49:14.770Z,1006.96
2017-05-10T06:50:24.731Z,1006.98
2017-05-10T06:51:34.998Z,1006.94
2017-05-10T06:52:44.969Z,1006.95
2017-05-10T06:53:55.235Z,1006.91
2017-05-10T06:55:05.189Z,1006.96
2017-05-10T06:56:15.164Z,1006.9
2017-05-10T06:57:25.119Z,1006.94
2017-05-10T06:58:35.390Z,1006.91
2017-05-10T06:59:45.655Z,1006.9
2017-05-10T07:00:55.925Z,1006.9
2017-05-10T07:02:05.887Z,1006.86
2017-05-10T07:03:16.156Z,1006.89
2017-05-10T07:04:26.109Z,1006.87
2017-05-10T07:05:36.062Z,1006.87
2017-05-10T07:06:46.327Z,1006.86
2017-05-10T07:07:56.596Z,1006.86
2017-05-10T07:09:06.556Z,1006.87
2017-05-10T07:10:16.823Z,1006.91
2017-05-10T07:11:26.780Z,1006.86
2017-05-10T07:12:37.043Z,1006.89
2017-05-10T07:13:47.312Z,1006.86
2017-05-10T07:14:57.268Z,1006.9
2017-05-10T07:16:07.230Z,1006.89
2017-05-10T07:17:16.869Z,1006.89
2017-05-10T07:18:26.817Z,1006.87
2017-05-10T07:19:37.081Z,1006.85
2017-05-10T07:20:46.403Z,1006.82
2017-05-10T07:21:56.354Z,1006.85
2017-05-10T07:23:06.617Z,1006.83
2017-05-10T07:24:16.894Z,1006.88
2017-05-10T07:25:26.853Z,1006.86
2017-05-10T07:26:36.173Z,1006.89
2017-05-10T07:27:46.126Z,1006.86
2017-05-10T07:28:56.104Z,1006.86
2017-05-10T07:30:06.376Z,1006.85
2017-05-10T07:31:16.328Z,1006.85
2017-05-10T07:32:26.598Z,1006.86
2017-05-10T07:33:36.549Z,1006.83
2017-05-10T07:34:46.822Z,1006.8
2017-05-10T07:35:56.776Z,1006.82
2017-05-10T07:37:06.418Z,1006.85
2017-05-10T07:38:16.685Z,1006.8
2017-05-10T07:39:26.635Z,1006.82
2017-05-10T07:40:36.269Z,1006.82
2017-05-10T07:41:46.543Z,1006.79
2017-05-10T07:42:56.810Z,1006.76
2017-05-10T07:44:06.454Z,1006.8
2017-05-10T07:45:16.085Z,1006.82
2017-05-10T07:46:26.351Z,1006.81
2017-05-10T07:47:36.322Z,1006.77
2017-05-10T07:48:46.627Z,1006.79
2017-05-10T07:49:56.895Z,1006.79
2017-05-10T07:51:06.537Z,1006.81
2017-05-10T07:52:16.495Z,1006.78
2017-05-10T07:53:26.444Z,1006.83
2017-05-10T07:54:36.397Z,1006.79
2017-05-10T07:55:46.664Z,1006.8
2017-05-10T07:56:56.924Z,1006.84
2017-05-10T07:58:07.193Z,1006.8
2017-05-10T07:59:16.513Z,1006.81
2017-05-10T08:00:26.791Z,1006.85
2017-05-10T08:01:37.058Z,1006.83
2017-05-10T08:02:47.335Z,1006.8
2017-05-10T08:03:57.355Z,1006.8
2017-05-10T08:05:07.672Z,1006.79
2017-05-10T08:06:17.929Z,1006.77
2017-05-10T08:07:28.192Z,1006.72
2017-05-10T08:08:38.463Z,1006.75
2017-05-10T08:09:48.423Z,1006.73
2017-05-10T08:10:58.375Z,1006.7
2017-05-10T08:12:08.345Z,1006.7
2017-05-10T08:13:18.301Z,1006.67
2017-05-10T08:14:28.566Z,1006.66
2017-05-10T08:15:38.827Z,1006.67
2017-05-10T08:16:54.118Z,1006.62
2017-05-10T08:18:04.426Z,1006.66
2017-05-10T08:19:14.695Z,1006.63
2017-05-10T08:20:24.970Z,1006.59
2017-05-10T08:21:35.236Z,1006.58
2017-05-10T08:22:45.498Z,1006.61
2017-05-10T08:23:55.451Z,1006.7
2017-05-10T08:25:05.404Z,1006.65
2017-05-10T08:26:15.039Z,1006.61
2017-05-10T08:27:25.310Z,1006.61
2017-05-10T08:28:35.262Z,1006.65
2017-05-10T08:29:45.210Z,1006.62
2017-05-10T08:30:55.481Z,1006.67
2017-05-10T08:32:05.432Z,1006.63
2017-05-10T08:33:15.394Z,1006.59
2017-05-10T08:34:25.668Z,1006.59
2017-05-10T08:35:35.625Z,1006.6
2017-05-10T08:36:45.576Z,1006.63
2017-05-10T08:37:55.548Z,1006.65
2017-05-10T08:39:05.820Z,1006.63
2017-05-10T08:40:16.084Z,1006.65
2017-05-10T08:41:26.345Z,1006.66
2017-05-10T08:42:36.609Z,1006.66
2017-05-10T08:43:46.878Z,1006.63
2017-05-10T08:44:56.834Z,1006.63
2017-05-10T08:46:07.103Z,1006.64
2017-05-10T08:47:16.745Z,1006.67
2017-05-10T08:48:26.391Z,1006.66
2017-05-10T08:49:36.348Z,1006.69
2017-05-10T08:50:46.619Z,1006.62
2017-05-10T08:51:56.576Z,1006.65
2017-05-10T08:53:06.844Z,1006.62
2017-05-10T08:54:17.113Z,1006.63
2017-05-10T08:55:27.378Z,1006.63
2017-05-10T08:56:37.652Z,1006.64
2017-05-10T08:57:47.915Z,1006.65
2017-05-10T08:58:58.183Z,1006.63
2017-05-10T09:00:08.454Z,1006.64
2017-05-10T09:01:18.715Z,1006.63
2017-05-10T09:02:28.989Z,1006.61
2017-05-10T09:03:38.936Z,1006.58
2017-05-10T09:04:48.897Z,1006.57
2017-05-10T09:05:58.851Z,1006.57
2017-05-10T09:07:08.165Z,1006.56
2017-05-10T09:08:18.112Z,1006.53
2017-05-10T09:09:28.067Z,1006.55
2017-05-10T09:10:38.030Z,1006.55
2017-05-10T09:11:48.325Z,1006.53
2017-05-10T09:12:58.274Z,1006.51
2017-05-10T09:14:08.548Z,1006.51
2017-05-10T09:15:18.817Z,1006.47
2017-05-10T09:16:28.782Z,1006.47
2017-05-10T09:17:39.051Z,1006.45
2017-05-10T09:18:49.317Z,1006.45
2017-05-10T09:19:59.592Z,1006.47
2017-05-10T09:21:09.553Z,1006.44
2017-05-10T09:22:19.816Z,1006.43
2017-05-10T09:23:29.767Z,1006.39
2017-05-10T09:24:40.035Z,1006.44
2017-05-10T09:25:49.988Z,1006.35
2017-05-10T09:27:00.246Z,1006.37
2017-05-10T09:28:09.883Z,1006.37
2017-05-10T09:29:19.834Z,1006.35
2017-05-10T09:30:30.101Z,1006.33
2017-05-10T09:31:39.732Z,1006.33
2017-05-10T09:32:50.013Z,1006.33
2017-05-10T09:34:00.283Z,1006.35
2017-05-10T09:35:10.547Z,1006.31
2017-05-10T09:36:20.182Z,1006.31
2017-05-10T09:37:30.449Z,1006.29
2017-05-10T09:38:40.724Z,1006.3
2017-05-10T09:39:50.997Z,1006.23
2017-05-10T09:41:00.960Z,1006.28
2017-05-10T09:42:10.595Z,1006.26
2017-05-10T09:43:20.865Z,1006.25
2017-05-10T09:44:30.502Z,1006.25
2017-05-10T09:45:40.454Z,1006.24
2017-05-10T09:46:50.715Z,1006.24
2017-05-10T09:48:00.667Z,1006.23
2017-05-10T09:49:10.622Z,1006.2
2017-05-10T09:50:20.603Z,1006.27
2017-05-10T09:51:30.558Z,1006.29
2017-05-10T09:52:40.823Z,1006.18
2017-05-10T09:53:51.083Z,1006.21
2017-05-10T09:55:01.346Z,1006.19
2017-05-10T09:56:11.614Z,1006.16
2017-05-10T09:57:21.571Z,1006.17
2017-05-10T09:58:31.842Z,1006.16
2017-05-10T09:59:41.794Z,1006.26
2017-05-10T10:00:52.063Z,1006.13
2017-05-10T10:02:02.023Z,1006.13
2017-05-10T10:03:11.975Z,1006.13
2017-05-10T10:04:22.239Z,1006.18
2017-05-10T10:05:31.876Z,1006.14
2017-05-10T10:06:42.140Z,1006.12
2017-05-10T10:07:52.406Z,1006.15
2017-05-10T10:09:02.681Z,1006.1
2017-05-10T10:10:12.946Z,1006.1
2017-05-10T10:11:23.210Z,1006.05
2017-05-10T10:12:33.483Z,1006.04
2017-05-10T10:13:43.440Z,1006.02
2017-05-10T10:14:53.709Z,1005.96
2017-05-10T10:16:03.662Z,1005.99
2017-05-10T10:17:12.982Z,1006.01
2017-05-10T10:18:23.249Z,1005.99
2017-05-10T10:19:33.515Z,1006.03
2017-05-10T10:20:43.472Z,1005.95
2017-05-10T10:21:53.744Z,1005.96
2017-05-10T10:23:03.695Z,1005.96
2017-05-10T10:24:13.969Z,1005.95
2017-05-10T10:25:23.914Z,1005.97
2017-05-10T10:26:33.863Z,1005.94
2017-05-10T10:27:44.124Z,1006
2017-05-10T10:28:54.393Z,1006.03
2017-05-10T10:30:04.669Z,1005.99
2017-05-10T10:31:14.304Z,1006.04
2017-05-10T10:32:24.258Z,1006.05
2017-05-10T10:33:34.526Z,1006.04
2017-05-10T10:34:44.163Z,1006.04
2017-05-10T10:35:54.109Z,1006.07
2017-05-10T10:37:04.062Z,1006.05
2017-05-10T10:38:14.377Z,1005.98
2017-05-10T10:39:24.642Z,1006
2017-05-10T10:40:34.919Z,1005.96
2017-05-10T10:41:45.184Z,1005.99
2017-05-10T10:42:55.457Z,1005.98
2017-05-10T10:44:05.719Z,1005.93
2017-05-10T10:45:15.980Z,1005.98
2017-05-10T10:46:25.932Z,1005.97
2017-05-10T10:47:35.572Z,1006.06
2017-05-10T10:48:45.838Z,1005.94
2017-05-10T10:49:56.110Z,1005.91
2017-05-10T10:51:06.066Z,1005.96
2017-05-10T10:52:15.390Z,1005.88
2017-05-10T10:53:25.661Z,1005.97
2017-05-10T10:54:35.937Z,1006.01
2017-05-10T10:55:45.574Z,1005.98
2017-05-10T10:56:55.531Z,1006.01
2017-05-10T10:58:05.491Z,1006.01
2017-05-10T10:59:15.130Z,1006.02
2017-05-10T11:00:25.395Z,1005.99
2017-05-10T11:01:35.679Z,1006
2017-05-10T11:02:45.635Z,1006
2017-05-10T11:03:55.624Z,1006
2017-05-10T11:05:05.257Z,1006.02
2017-05-10T11:06:15.205Z,1005.99
2017-05-10T11:07:25.474Z,1006
2017-05-10T11:08:35.742Z,1006.06
2017-05-10T11:09:46.006Z,1006.07
2017-05-10T11:10:55.959Z,1006.07
2017-05-10T11:12:06.228Z,1005.96
2017-05-10T11:13:16.490Z,1006.03
2017-05-10T11:14:26.495Z,1006
2017-05-10T11:15:36.454Z,1005.96
2017-05-10T11:16:46.406Z,1006.01
2017-05-10T11:17:56.376Z,1005.94
2017-05-10T11:19:06.658Z,1005.98
2017-05-10T11:20:16.932Z,1005.95
2017-05-10T11:21:27.200Z,1005.99
2017-05-10T11:22:37.147Z,1006.03
2017-05-10T11:23:47.415Z,1006.05
2017-05-10T11:24:57.095Z,1006.04
2017-05-10T11:26:07.357Z,1005.97
2017-05-10T11:27:16.995Z,1006.02
2017-05-10T11:28:26.944Z,1005.97
2017-05-10T11:29:37.207Z,1005.96
2017-05-10T11:30:47.152Z,1005.97
2017-05-10T11:31:57.112Z,1005.95
2017-05-10T11:33:07.068Z,1005.97
2017-05-10T11:34:17.019Z,1005.94
2017-05-10T11:35:26.969Z,1005.92
2017-05-10T11:36:37.227Z,1005.98
2017-05-10T11:37:47.492Z,1005.89
2017-05-10T11:38:57.127Z,1005.9
2017-05-10T11:40:07.076Z,1005.91
2017-05-10T11:41:17.367Z,1005.9
2017-05-10T11:42:27.317Z,1005.91
2017-05-10T11:43:37.580Z,1005.9
2017-05-10T11:44:47.529Z,1005.91
2017-05-10T11:45:57.476Z,1005.91
2017-05-10T11:47:07.431Z,1005.95
2017-05-10T11:48:17.382Z,1005.89
2017-05-10T11:49:27.644Z,1005.95
2017-05-10T11:50:37.906Z,1005.95
2017-05-10T11:51:47.549Z,1005.95
2017-05-10T11:52:57.497Z,1005.94
2017-05-10T11:54:07.446Z,1005.92
2017-05-10T11:55:17.401Z,1005.93
2017-05-10T11:56:27.668Z,1005.9
2017-05-10T11:57:37.938Z,1005.92
2017-05-10T11:58:47.903Z,1006.01
2017-05-10T11:59:58.176Z,1005.92
2017-05-10T12:01:08.453Z,1005.91
2017-05-10T12:02:18.132Z,1005.95
2017-05-10T12:03:28.637Z,1005.95
2017-05-10T12:04:38.915Z,1005.81
2017-05-10T12:05:48.559Z,1005.85
2017-05-10T12:06:58.207Z,1005.85
2017-05-10T12:08:07.852Z,1005.81
2017-05-10T12:09:17.801Z,1005.77
2017-05-10T12:10:28.071Z,1005.81
2017-05-10T12:11:38.351Z,1005.79
2017-05-10T12:12:48.612Z,1005.81
2017-05-10T12:13:58.873Z,1005.79
2017-05-10T12:15:09.138Z,1005.82
2017-05-10T12:16:19.405Z,1005.83
2017-05-10T12:17:29.361Z,1005.83
2017-05-10T12:18:39.627Z,1005.82
2017-05-10T12:19:49.898Z,1005.84
2017-05-10T12:21:00.163Z,1005.83
2017-05-10T12:22:10.473Z,1005.91
2017-05-10T12:23:20.746Z,1005.82
2017-05-10T12:24:31.051Z,1005.93
2017-05-10T12:25:41.001Z,1005.82
2017-05-10T12:26:50.951Z,1005.78
2017-05-10T12:28:01.219Z,1005.8
2017-05-10T12:29:11.168Z,1005.76
2017-05-10T12:30:21.123Z,1005.78
2017-05-10T12:31:31.074Z,1005.74
2017-05-10T12:32:41.029Z,1005.76
2017-05-10T12:33:51.297Z,1005.72
2017-05-10T12:35:01.243Z,1005.76
2017-05-10T12:36:10.574Z,1005.69
2017-05-10T12:37:20.838Z,1005.73
2017-05-10T12:38:31.103Z,1005.74
2017-05-10T12:39:40.740Z,1005.76
2017-05-10T12:40:51.006Z,1005.79
2017-05-10T12:42:01.271Z,1005.77
2017-05-10T12:43:11.220Z,1005.88
2017-05-10T12:44:21.172Z,1005.72
2017-05-10T12:45:31.125Z,1005.79
2017-05-10T12:46:41.080Z,1005.7
2017-05-10T12:47:50.726Z,1005.73
2017-05-10T12:49:01.035Z,1005.72
2017-05-10T12:50:11.307Z,1005.74
2017-05-10T12:51:20.621Z,1005.65
2017-05-10T12:52:30.890Z,1005.75
2017-05-10T12:53:40.527Z,1005.74
2017-05-10T12:54:50.489Z,1005.62
2017-05-10T12:56:00.756Z,1005.68
2017-05-10T12:57:10.708Z,1005.6
2017-05-10T12:58:20.984Z,1005.53
2017-05-10T12:59:31.253Z,1005.53
2017-05-10T13:00:41.519Z,1005.5
2017-05-10T13:01:51.782Z,1005.56
2017-05-10T13:03:01.735Z,1005.5
2017-05-10T13:04:12.000Z,1005.48
2017-05-10T13:05:22.265Z,1005.49
2017-05-10T13:06:32.216Z,1005.54
2017-05-10T13:07:42.483Z,1005.56
2017-05-10T13:08:52.435Z,1005.54
2017-05-10T13:10:02.702Z,1005.55
2017-05-10T13:11:12.336Z,1005.55
2017-05-10T13:12:22.282Z,1005.51
2017-05-10T13:13:32.229Z,1005.52
2017-05-10T13:14:42.183Z,1005.46
2017-05-10T13:15:51.819Z,1005.46
2017-05-10T13:17:01.771Z,1005.46
2017-05-10T13:18:11.724Z,1005.45
2017-05-10T13:19:21.672Z,1005.45
2017-05-10T13:20:31.622Z,1005.44
2017-05-10T13:21:41.887Z,1005.4
2017-05-10T13:22:52.163Z,1005.47
2017-05-10T13:24:02.116Z,1005.33
2017-05-10T13:25:12.075Z,1005.36
2017-05-10T13:26:22.025Z,1005.37
2017-05-10T13:27:32.291Z,1005.28
2017-05-10T13:28:42.558Z,1005.34
2017-05-10T13:29:52.825Z,1005.29
2017-05-10T13:31:02.778Z,1005.36
2017-05-10T13:32:12.104Z,1005.45
2017-05-10T13:33:22.366Z,1005.4
2017-05-10T13:34:32.004Z,1005.29
2017-05-10T13:35:41.954Z,1005.33
2017-05-10T13:36:51.904Z,1005.32
2017-05-10T13:38:01.540Z,1005.43
2017-05-10T13:39:11.168Z,1005.34
2017-05-10T13:40:21.433Z,1005.33
2017-05-10T13:41:31.738Z,1005.28
2017-05-10T13:42:42.006Z,1005.24
2017-05-10T13:43:52.272Z,1005.22
2017-05-10T13:45:01.911Z,1005.25
2017-05-10T13:46:12.171Z,1005.22
2017-05-10T13:47:22.126Z,1005.16
2017-05-10T13:48:32.084Z,1005.24
2017-05-10T13:49:42.356Z,1005.23
2017-05-10T13:50:52.308Z,1005.26
2017-05-10T13:52:02.568Z,1005.23
2017-05-10T13:53:12.565Z,1005.24
2017-05-10T13:54:22.515Z,1005.21
2017-05-10T13:55:32.503Z,1005.26
2017-05-10T13:56:42.762Z,1005.25
2017-05-10T13:57:53.033Z,1005.16
2017-05-10T13:59:02.983Z,1005.21
2017-05-10T14:00:13.246Z,1005.15
2017-05-10T14:01:23.201Z,1005.15
2017-05-10T14:02:32.842Z,1005.09
2017-05-10T14:03:43.106Z,1005.18
2017-05-10T14:04:53.372Z,1005.18
2017-05-10T14:06:02.696Z,1005.18
2017-05-10T14:07:12.336Z,1005.12
2017-05-10T14:08:21.968Z,1005.18
2017-05-10T14:09:32.272Z,1005.12
2017-05-10T14:10:42.534Z,1005.09